Time;durP1;ratioP1;P1;durP2;ratioP2;P2;SDS_P1;SDS_P2;PMS_P1;PMS_P2;Temp;Humidity;BMP_temperature;BMP_pressure;BME280_temperature;BME280_humidity;BME280_pressure;Samples;Min_cycle;Max_cycle;Signal;HPM_P1;HPM_P2
2021/12/21 00:01:23;;;;;;;7.43;3.63;;;;;;;-13.14;77.91;100017.00;5057544;28;20075;-74
2021/12/21 00:03:54;;;;;;;3.53;3.05;;;;;;;-12.84;78.19;100033.47;5057464;28;20051;-74
2021/12/21 00:06:27;;;;;;;4.95;3.35;;;;;;;-12.64;77.90;100027.34;5057117;28;20053;-74
2021/12/21 00:08:58;;;;;;;3.58;3.13;;;;;;;-12.48;77.79;100024.28;5057044;28;20052;-73
2021/12/21 00:11:29;;;;;;;4.40;3.45;;;;;;;-12.69;77.50;99945.63;5057101;28;20065;-73
2021/12/21 00:14:13;;;;;;;5.80;3.40;;;;;;;-12.19;77.53;99998.59;5057299;28;20108;-77
2021/12/21 00:17:11;;;;;;;6.30;3.20;;;;;;;-12.05;77.31;99983.59;5057408;28;20111;-71
2021/12/21 00:20:08;;;;;;;5.22;3.72;;;;;;;-11.87;77.29;99982.31;5057128;28;20216;-72
2021/12/21 00:23:17;;;;;;;11.30;3.50;;;;;;;-11.58;77.12;99990.91;5058269;28;20661;-71
2021/12/21 00:25:48;;;;;;;9.00;4.60;;;;;;;-11.40;76.43;99981.19;5060938;28;20277;-72
2021/12/21 00:28:19;;;;;;;8.50;4.82;;;;;;;-11.12;76.25;99999.00;5061294;28;20045;-76
2021/12/21 00:30:49;;;;;;;7.63;4.72;;;;;;;-11.03;76.20;99984.47;5061361;28;20116;-74
2021/12/21 00:33:20;;;;;;;8.32;3.97;;;;;;;-10.85;75.73;99964.56;5060884;28;20047;-77
2021/12/21 00:35:51;;;;;;;6.60;4.28;;;;;;;-10.57;75.24;99982.31;5060676;28;20041;-73
2021/12/21 00:38:23;;;;;;;9.00;4.05;;;;;;;-10.37;75.04;99975.13;5060667;28;20052;-72
2021/12/21 00:40:54;;;;;;;13.35;5.25;;;;;;;-10.63;74.28;99976.91;5060925;28;20045;-76
2021/12/21 00:43:25;;;;;;;14.48;5.63;;;;;;;-10.95;73.62;99978.25;5060488;28;20108;-71
2021/12/21 00:45:56;;;;;;;12.23;6.28;;;;;;;-11.28;72.58;99987.03;5060461;28;20045;-74
2021/12/21 00:48:30;;;;;;;15.10;8.23;;;;;;;-11.49;71.91;99973.88;5060552;28;20107;-73
2021/12/21 00:51:02;;;;;;;16.23;7.22;;;;;;;-11.67;71.67;99960.06;5060585;28;20108;-72
2021/12/21 00:53:37;;;;;;;10.20;5.15;;;;;;;-11.59;72.37;99962.31;5060619;28;20278;-74
2021/12/21 00:56:08;;;;;;;10.02;5.88;;;;;;;-11.26;73.30;99944.25;5060578;28;20116;-76
2021/12/21 00:58:39;;;;;;;10.43;4.10;;;;;;;-10.91;74.65;99924.66;5060368;28;20320;-73
2021/12/21 01:01:10;;;;;;;6.95;3.63;;;;;;;-10.30;74.88;99946.94;5060346;28;20076;-74
2021/12/21 01:03:47;;;;;;;4.15;3.17;;;;;;;-10.00;74.31;99928.53;5060213;28;20220;-71
2021/12/21 01:06:24;;;;;;;6.53;3.50;;;;;;;-9.70;73.93;99937.84;5060549;28;20049;-78
2021/12/21 01:09:08;;;;;;;4.97;3.13;;;;;;;-9.41;73.26;99935.38;5060167;28;20386;-71
2021/12/21 01:11:43;;;;;;;7.72;4.05;;;;;;;-9.13;72.62;99930.22;5060167;28;20299;-73
2021/12/21 01:14:47;;;;;;;6.35;2.97;;;;;;;-9.00;72.02;99915.72;5060157;28;20044;-71
2021/12/21 01:17:23;;;;;;;4.63;2.95;;;;;;;-8.79;71.32;99911.81;5060372;28;20056;-72
2021/12/21 01:20:03;;;;;;;8.70;3.17;;;;;;;-9.29;70.41;99801.06;5060138;28;20239;-69
2021/12/21 01:22:51;;;;;;;5.60;3.33;;;;;;;-8.47;70.36;99900.88;5060149;28;20112;-71
2021/12/21 01:25:34;;;;;;;6.57;3.05;;;;;;;-8.49;69.76;99886.41;5060028;28;20041;-83
2021/12/21 01:28:13;;;;;;;5.88;2.90;;;;;;;-8.36;69.49;99888.78;5059628;28;20109;-71
2021/12/21 01:30:52;;;;;;;7.22;3.67;;;;;;;-8.29;69.15;99895.88;5059731;28;20230;-74
2021/12/21 01:33:38;;;;;;;5.47;3.40;;;;;;;-8.21;69.39;99883.63;5059573;28;20045;-81
2021/12/21 01:36:20;;;;;;;6.63;3.50;;;;;;;-8.12;69.08;99878.16;5059266;28;20365;-76
2021/12/21 01:38:57;;;;;;;10.43;3.40;;;;;;;-8.03;68.61;99873.56;5059989;28;20049;-74
2021/12/21 01:41:36;;;;;;;7.05;3.53;;;;;;;-7.95;68.70;99876.50;5059371;28;20045;-73
2021/12/21 01:44:20;;;;;;;6.07;2.92;;;;;;;-8.00;68.41;99850.91;5059480;28;20044;-74
2021/12/21 01:49:43;;;;;;;7.00;3.88;;;;;;;-7.82;67.96;99859.44;5059573;28;20266;-77
2021/12/21 01:52:16;;;;;;;10.02;3.47;;;;;;;-7.70;67.60;99871.00;5059461;28;20113;-72
2021/12/21 01:54:49;;;;;;;10.75;4.78;;;;;;;-7.72;67.49;99859.91;5059339;28;20045;-78
2021/12/21 01:57:22;;;;;;;5.55;3.42;;;;;;;-7.76;67.38;99858.00;5059380;28;20065;-73
2021/12/21 01:59:53;;;;;;;6.93;3.88;;;;;;;-7.66;66.99;99867.78;5059378;28;20311;-72
2021/12/21 02:02:24;;;;;;;8.93;4.60;;;;;;;-7.75;66.71;99857.22;5059343;28;20051;-74
2021/12/21 02:04:55;;;;;;;6.07;3.85;;;;;;;-7.77;66.45;99856.25;5059211;28;20263;-74
2021/12/21 02:07:26;;;;;;;10.88;5.72;;;;;;;-7.82;66.26;99859.44;5058937;28;20116;-71
2021/12/21 02:09:57;;;;;;;7.07;4.18;;;;;;;-8.11;66.30;99801.31;5059208;28;20053;-71
2021/12/21 02:12:29;;;;;;;4.80;3.50;;;;;;;-7.94;66.63;99828.38;5058934;28;20056;-72
2021/12/21 02:15:01;;;;;;;6.20;4.22;;;;;;;-7.74;66.77;99841.19;5059000;28;20080;-76
2021/12/21 02:18:00;;;;;;;9.35;4.25;;;;;;;-7.74;66.92;99841.19;5048623;28;20114;-71
2021/12/21 02:20:42;;;;;;;6.75;4.05;;;;;;;-7.60;67.11;99842.75;5042032;28;20045;-71
2021/12/21 02:23:17;;;;;;;6.95;3.95;;;;;;;-7.54;67.12;99840.50;5058777;28;20084;-72
2021/12/21 02:29:09;;;;;;;9.48;4.45;;;;;;;-7.26;67.23;99837.63;5043555;28;20072;-73
2021/12/21 02:31:41;;;;;;;10.82;4.45;;;;;;;-7.21;67.24;99825.16;5044380;28;20235;-76
2021/12/21 02:34:12;;;;;;;11.07;4.45;;;;;;;-7.19;66.59;99823.53;5045067;28;20288;-74
2021/12/21 02:36:47;;;;;;;8.00;4.15;;;;;;;-7.15;66.81;99825.44;5043908;28;20046;-73
2021/12/21 02:39:18;;;;;;;11.00;4.95;;;;;;;-7.06;66.77;99825.88;5040629;28;20387;-71
2021/12/21 02:41:49;;;;;;;7.68;4.20;;;;;;;-7.09;66.89;99810.47;5043815;28;20108;-77
2021/12/21 02:44:20;;;;;;;7.88;4.38;;;;;;;-6.99;67.19;99812.69;5043984;28;20116;-79
2021/12/21 02:46:51;;;;;;;12.43;4.78;;;;;;;-6.99;66.65;99807.59;5043883;28;20043;-76
2021/12/21 02:52:02;;;;;;;10.07;5.20;;;;;;;-6.98;66.41;99799.16;5016955;23;20440;-68
2021/12/21 02:54:33;;;;;;;10.45;5.30;;;;;;;-6.99;66.54;99796.53;5014277;28;20073;-67
2021/12/21 02:57:04;;;;;;;13.35;5.13;;;;;;;-6.92;66.31;99797.72;5037792;22;20046;-68
2021/12/21 02:59:35;;;;;;;11.32;5.63;;;;;;;-6.90;66.25;99796.13;5018321;23;20062;-67
2021/12/21 03:02:06;;;;;;;9.57;5.93;;;;;;;-7.30;65.70;99733.34;5008939;28;20107;-75
2021/12/21 03:04:37;;;;;;;12.20;6.07;;;;;;;-7.07;66.05;99783.50;5009127;28;20422;-67
2021/12/21 03:09:58;;;;;;;13.52;7.20;;;;;;;-7.08;66.21;99776.69;5012085;28;20054;-67
2021/12/21 03:13:52;;;;;;;15.13;8.13;;;;;;;-7.04;65.96;99765.00;5007212;28;20372;-69
2021/12/21 03:15:30;;;;;;;11.00;5.85;;;;;;;-7.01;65.93;99785.47;5013046;28;20358;-68
2021/12/21 03:18:01;;;;;;;14.00;6.90;;;;;;;-7.12;65.74;99764.63;5011999;28;20088;-68
2021/12/21 03:20:32;;;;;;;17.67;7.53;;;;;;;-7.21;65.80;99759.16;4976762;28;20281;-67
2021/12/21 03:23:04;;;;;;;23.73;9.18;;;;;;;-7.10;66.09;99773.22;5003840;28;20050;-68
2021/12/21 03:25:35;;;;;;;13.60;7.80;;;;;;;-7.24;65.90;99741.22;5003512;28;20329;-67
2021/12/21 03:28:06;;;;;;;16.38;7.90;;;;;;;-7.19;65.76;99753.34;5001824;28;20162;-67
2021/12/21 03:30:37;;;;;;;13.77;7.60;;;;;;;-7.25;66.08;99731.88;5003350;28;20050;-68
2021/12/21 03:33:07;;;;;;;13.95;6.80;;;;;;;-7.03;66.33;99749.84;5003390;28;20375;-66
2021/12/21 03:35:38;;;;;;;16.90;7.40;;;;;;;-6.96;66.01;99746.78;5003841;28;20113;-67
2021/12/21 03:38:11;;;;;;;18.02;7.10;;;;;;;-6.82;66.01;99754.13;5003363;28;20061;-66
2021/12/21 03:40:41;;;;;;;13.40;6.45;;;;;;;-6.80;65.55;99738.16;5003028;28;20210;-65
2021/12/21 03:43:12;;;;;;;14.27;6.78;;;;;;;-6.58;65.66;99750.13;5001429;28;20068;-65
2021/12/21 03:45:52;;;;;;;14.07;6.20;;;;;;;-6.45;65.49;99751.53;5002733;28;20180;-67
2021/12/21 03:48:24;;;;;;;15.30;5.97;;;;;;;-6.62;65.01;99706.72;5003220;28;20054;-67
2021/12/21 03:50:54;;;;;;;14.40;7.68;;;;;;;-6.13;65.14;99750.38;5003274;28;20112;-67
2021/12/21 03:53:27;;;;;;;15.15;6.85;;;;;;;-5.99;65.21;99752.59;4995629;28;20296;-65
2021/12/21 03:58:42;;;;;;;14.18;6.25;;;;;;;-5.87;65.36;99742.91;5002577;28;20376;-67
2021/12/21 04:01:12;;;;;;;14.35;6.90;;;;;;;-5.81;65.20;99738.06;5007118;28;20271;-66
2021/12/21 04:03:43;;;;;;;14.57;6.50;;;;;;;-5.70;65.10;99730.88;5007492;28;20074;-67
2021/12/21 04:06:15;;;;;;;15.52;6.85;;;;;;;-5.64;64.40;99731.13;5006315;28;20061;-67
2021/12/21 04:08:47;;;;;;;16.13;7.30;;;;;;;-5.73;64.68;99731.63;5007300;28;20233;-69
2021/12/21 04:11:18;;;;;;;15.30;6.80;;;;;;;-5.72;64.16;99728.25;5006899;28;20320;-68
2021/12/21 04:13:49;;;;;;;15.05;7.45;;;;;;;-5.66;64.73;99727.66;5006953;28;20042;-68
2021/12/21 04:16:20;;;;;;;13.38;6.45;;;;;;;-5.47;64.65;99729.22;5007082;28;20431;-69
2021/12/21 04:18:51;;;;;;;12.07;6.50;;;;;;;-5.34;64.50;99726.38;5006869;28;20054;-67
2021/12/21 04:21:21;;;;;;;13.82;6.22;;;;;;;-5.20;64.45;99730.28;5007310;28;20050;-68
2021/12/21 04:23:54;;;;;;;14.30;6.20;;;;;;;-5.22;64.11;99721.75;5006715;28;20339;-68
2021/12/21 04:26:25;;;;;;;14.85;6.68;;;;;;;-5.07;64.58;99728.19;5007633;28;20069;-67
2021/12/21 04:28:56;;;;;;;10.90;5.40;;;;;;;-4.96;63.58;99724.38;5007474;28;20139;-68
2021/12/21 04:31:26;;;;;;;12.20;6.07;;;;;;;-5.02;63.69;99719.03;5007489;28;20124;-68
2021/12/21 04:33:58;;;;;;;13.77;4.78;;;;;;;-4.83;64.48;99721.47;5007455;28;20125;-68
2021/12/21 04:36:30;;;;;;;9.27;5.35;;;;;;;-4.64;64.08;99732.31;5007913;28;20339;-68
2021/12/21 04:39:05;;;;;;;8.70;4.50;;;;;;;-4.49;63.98;99726.88;5007206;28;20093;-68
2021/12/21 04:41:36;;;;;;;8.77;4.05;;;;;;;-4.34;63.99;99718.09;5007018;28;20393;-68
2021/12/21 04:44:20;;;;;;;7.03;3.72;;;;;;;-4.15;63.03;99723.81;5007237;28;20068;-68
2021/12/21 04:46:50;;;;;;;6.75;4.10;;;;;;;-4.07;63.02;99719.84;5007206;28;20054;-68
2021/12/21 04:49:21;;;;;;;9.70;4.45;;;;;;;-3.91;63.29;99724.66;5006934;28;20081;-69
2021/12/21 04:51:52;;;;;;;7.45;4.00;;;;;;;-3.80;63.27;99701.16;5006773;28;20046;-68
2021/12/21 04:54:24;;;;;;;15.82;3.97;;;;;;;-3.61;62.90;99713.69;5006880;28;20344;-67
2021/12/21 04:56:55;;;;;;;6.93;4.07;;;;;;;-3.35;62.55;99731.50;5006802;28;20052;-68
2021/12/21 04:59:26;;;;;;;6.93;4.15;;;;;;;-3.29;62.57;99721.50;5006533;28;20356;-68
2021/12/21 05:01:56;;;;;;;6.13;3.90;;;;;;;-3.19;62.20;99728.59;5006544;28;20053;-69
2021/12/21 05:04:27;;;;;;;9.73;4.70;;;;;;;-3.37;60.99;99731.47;5005965;28;20121;-70
2021/12/21 05:06:58;;;;;;;14.27;8.50;;;;;;;-3.56;60.91;99727.47;5005232;28;20060;-67
2021/12/21 05:09:39;;;;;;;13.20;7.93;;;;;;;-3.57;62.00;99747.84;5004757;28;20066;-70
2021/12/21 05:12:13;;;;;;;12.75;6.95;;;;;;;-3.61;62.43;99739.22;5006457;28;20488;-69
2021/12/21 05:14:43;;;;;;;15.65;7.22;;;;;;;-3.67;61.55;99739.00;5006154;28;20124;-68
2021/12/21 05:17:14;;;;;;;11.38;5.95;;;;;;;-3.69;61.90;99735.56;5006107;28;20070;-67
2021/12/21 05:19:45;;;;;;;10.75;5.85;;;;;;;-3.65;62.47;99742.50;5006531;28;20046;-67
2021/12/21 05:22:16;;;;;;;5.90;3.63;;;;;;;-3.74;62.08;99743.06;5006201;28;20046;-68
2021/12/21 05:24:49;;;;;;;6.90;3.70;;;;;;;-3.87;61.55;99746.03;5006457;28;20129;-67
2021/12/21 05:27:19;;;;;;;9.25;3.80;;;;;;;-4.05;61.33;99730.09;5005996;28;20531;-67
2021/12/21 05:29:50;;;;;;;7.07;4.20;;;;;;;-4.19;61.44;99747.53;5003764;28;20060;-68
2021/12/21 05:32:21;;;;;;;11.45;5.55;;;;;;;-4.10;61.70;99758.00;4985410;28;20039;-67
2021/12/21 05:34:52;;;;;;;6.97;3.78;;;;;;;-4.21;62.00;99754.25;4985074;28;20317;-68
2021/12/21 05:37:23;;;;;;;4.28;2.70;;;;;;;-4.37;61.40;99745.16;4984732;28;20082;-67
2021/12/21 05:40:00;;;;;;;4.10;2.53;;;;;;;-4.49;61.85;99755.84;4985815;28;20105;-67
2021/12/21 05:42:31;;;;;;;3.90;2.60;;;;;;;-4.66;62.22;99739.06;4985536;28;20046;-69
2021/12/21 05:45:02;;;;;;;3.50;2.33;;;;;;;-4.88;62.23;99733.16;4985230;28;20057;-69
2021/12/21 05:47:33;;;;;;;4.65;2.55;;;;;;;-5.03;62.68;99732.59;4984928;28;20049;-69
2021/12/21 05:50:04;;;;;;;5.47;2.70;;;;;;;-5.16;62.69;99740.59;4984342;28;20062;-67
2021/12/21 05:52:35;;;;;;;3.55;2.50;;;;;;;-5.20;63.06;99755.75;4986276;28;20046;-67
2021/12/21 05:55:09;;;;;;;4.72;2.40;;;;;;;-5.33;63.40;99743.38;4985491;28;20047;-68
2021/12/21 05:57:40;;;;;;;5.55;2.55;;;;;;;-5.34;63.78;99751.81;4984894;28;20069;-67
2021/12/21 06:00:13;;;;;;;6.60;2.70;;;;;;;-5.42;64.05;99753.19;4984472;28;20097;-68
2021/12/21 06:02:44;;;;;;;3.47;2.60;;;;;;;-5.49;64.22;99753.75;4984226;28;20046;-69
2021/12/21 06:05:15;;;;;;;4.78;2.45;;;;;;;-5.54;64.19;99748.50;4985037;28;20061;-68
2021/12/21 06:07:49;;;;;;;5.35;2.50;;;;;;;-5.61;64.58;99753.28;4985504;28;20054;-68
2021/12/21 06:10:26;;;;;;;10.38;2.88;;;;;;;-5.73;64.94;99751.97;4984872;28;20059;-68
2021/12/21 06:13:18;;;;;;;6.40;2.97;;;;;;;-5.80;64.88;99742.34;4984315;28;20405;-69
2021/12/21 06:16:07;;;;;;;4.38;2.50;;;;;;;-5.73;65.15;99751.09;4984781;28;20084;-67
2021/12/21 06:27:16;;;;;;;5.53;2.83;;;;;;;-5.98;66.23;99752.69;4982959;28;20081;-67
2021/12/21 06:29:47;;;;;;;3.67;2.70;;;;;;;-5.98;66.60;99759.44;4984801;28;20396;-68
2021/12/21 06:32:18;;;;;;;5.20;2.50;;;;;;;-6.01;66.47;99764.41;4985195;28;20294;-69
2021/12/21 06:34:50;;;;;;;3.63;2.55;;;;;;;-6.12;66.89;99748.69;4983942;28;20054;-68
2021/12/21 06:37:20;;;;;;;3.67;2.90;;;;;;;-6.15;67.20;99762.13;4983001;28;20088;-68
2021/12/21 06:39:51;;;;;;;4.47;2.83;;;;;;;-6.15;67.30;99771.44;4983755;28;20068;-67
2021/12/21 06:42:25;;;;;;;4.88;3.08;;;;;;;-6.27;67.64;99766.72;4983361;28;20644;-68
2021/12/21 06:44:58;;;;;;;8.95;4.40;;;;;;;-6.27;68.09;99769.25;4982683;28;20537;-67
2021/12/21 06:53:04;;;;;;;5.75;3.80;;;;;;;-6.40;70.29;99764.44;4985271;28;20062;-68
2021/12/21 06:55:35;;;;;;;6.00;3.42;;;;;;;-6.53;70.49;99753.75;4985433;28;20379;-68
2021/12/21 06:58:07;;;;;;;4.72;2.90;;;;;;;-6.46;71.03;99772.69;4984913;28;20237;-69
2021/12/21 07:00:39;;;;;;;3.95;2.78;;;;;;;-6.55;70.88;99770.59;4984303;28;20077;-68
2021/12/21 07:03:10;;;;;;;4.68;2.80;;;;;;;-6.56;71.11;99768.88;4984856;28;20063;-68
2021/12/21 07:05:42;;;;;;;3.63;2.30;;;;;;;-6.63;71.46;99761.78;4984226;28;20102;-68
2021/12/21 07:08:16;;;;;;;4.00;2.50;;;;;;;-6.67;71.61;99772.59;4984905;28;20061;-67
2021/12/21 07:10:54;;;;;;;4.55;2.60;;;;;;;-6.77;71.78;99757.75;4983506;28;20161;-68
2021/12/21 07:19:02;;;;;;;5.20;2.78;;;;;;;-6.74;72.15;99765.50;4984574;28;20089;-67
2021/12/21 07:21:33;;;;;;;10.63;3.10;;;;;;;-6.77;72.45;99767.91;4984977;28;20188;-68
2021/12/21 07:24:04;;;;;;;4.78;2.70;;;;;;;-6.71;72.61;99778.38;4983910;28;20071;-69
2021/12/21 07:26:35;;;;;;;5.22;3.10;;;;;;;-6.84;72.40;99763.34;4984943;28;20078;-69
2021/12/21 07:29:08;;;;;;;3.85;2.83;;;;;;;-6.75;72.39;99781.56;4984630;28;20068;-69
2021/12/21 07:31:39;;;;;;;5.00;3.20;;;;;;;-6.80;72.63;99778.81;4984544;28;20062;-68
2021/12/21 07:34:10;;;;;;;6.30;2.92;;;;;;;-6.83;72.74;99777.81;4984763;28;20081;-69
2021/12/21 07:36:43;;;;;;;3.42;2.85;;;;;;;-6.96;73.03;99767.09;4984452;28;20061;-68
2021/12/21 07:39:17;;;;;;;4.05;2.92;;;;;;;-7.08;72.96;99746.22;4984576;28;20077;-67
2021/12/21 07:42:09;;;;;;;5.80;3.17;;;;;;;-6.87;73.45;99778.47;4984358;28;20120;-67
2021/12/21 07:44:41;;;;;;;3.35;2.50;;;;;;;-7.02;73.43;99749.03;4984452;28;20392;-69
2021/12/21 07:47:12;;;;;;;5.88;2.70;;;;;;;-6.91;73.27;99779.13;4984318;28;20059;-68
2021/12/21 07:49:43;;;;;;;3.20;2.70;;;;;;;-6.87;73.32;99786.09;4983924;28;20050;-66
2021/12/21 07:52:15;;;;;;;4.25;3.28;;;;;;;-6.93;73.41;99778.19;4984165;28;20084;-70
2021/12/21 07:54:46;;;;;;;3.17;2.80;;;;;;;-6.97;73.70;99770.41;4984283;28;20059;-67
2021/12/21 07:57:17;;;;;;;3.22;2.50;;;;;;;-7.00;73.59;99770.28;4984404;28;20113;-67
2021/12/21 07:59:50;;;;;;;3.20;2.75;;;;;;;-7.03;73.97;99767.63;4983790;28;20350;-66
2021/12/21 08:02:22;;;;;;;6.03;3.33;;;;;;;-7.00;74.20;99775.38;4984069;28;20049;-67
2021/12/21 08:04:53;;;;;;;6.18;3.50;;;;;;;-7.14;74.41;99751.00;4984336;28;20058;-66
2021/12/21 08:07:31;;;;;;;6.50;3.42;;;;;;;-7.08;75.01;99755.50;4984308;28;20054;-67
2021/12/21 08:10:17;;;;;;;8.98;4.18;;;;;;;-7.05;75.95;99771.75;4983886;28;20114;-67
2021/12/21 08:12:48;;;;;;;7.82;3.83;;;;;;;-7.14;76.86;99756.06;4983849;28;20421;-67
2021/12/21 08:15:21;;;;;;;7.45;3.90;;;;;;;-7.14;77.34;99756.06;4984250;28;20050;-69
2021/12/21 08:17:51;;;;;;;8.48;4.15;;;;;;;-7.24;77.89;99759.88;4984116;28;20758;-68
2021/12/21 08:20:22;;;;;;;8.98;4.28;;;;;;;-7.22;78.11;99762.47;4984268;28;20126;-68
2021/12/21 08:22:53;;;;;;;7.30;4.22;;;;;;;-7.30;78.18;99748.56;4983880;28;20116;-69
2021/12/21 08:25:26;;;;;;;5.95;3.95;;;;;;;-7.26;79.02;99755.50;4983965;28;20330;-68
2021/12/21 08:27:57;;;;;;;8.35;3.85;;;;;;;-7.25;79.22;99754.72;4983766;28;20089;-70
2021/12/21 08:30:31;;;;;;;6.72;3.95;;;;;;;-7.33;79.25;99741.69;4983976;28;20093;-71
2021/12/21 08:33:03;;;;;;;6.55;4.50;;;;;;;-7.25;79.83;99747.13;4984156;28;20341;-71
2021/12/21 08:35:34;;;;;;;8.57;4.60;;;;;;;-7.37;80.08;99727.97;4983819;28;20074;-67
2021/12/21 08:38:07;;;;;;;9.77;5.70;;;;;;;-7.26;80.07;99740.28;4983370;28;20368;-69
2021/12/21 08:40:40;;;;;;;15.05;6.18;;;;;;;-7.29;80.62;99735.06;4984125;28;20121;-69
2021/12/21 08:43:15;;;;;;;11.98;6.25;;;;;;;-7.24;80.99;99736.16;4984510;28;20102;-69
2021/12/21 08:45:51;;;;;;;13.95;7.80;;;;;;;-7.56;81.45;99674.66;4987315;28;20054;-68
2021/12/21 08:48:22;;;;;;;12.85;7.65;;;;;;;-7.22;81.78;99734.56;4987062;28;20057;-69
2021/12/21 08:50:55;;;;;;;12.23;7.40;;;;;;;-7.30;81.91;99705.41;4987438;28;20061;-69
2021/12/21 08:53:26;;;;;;;17.33;8.27;;;;;;;-7.18;82.26;99718.69;4987279;28;20381;-68
2021/12/21 08:55:57;;;;;;;34.55;14.18;;;;;;;-7.16;82.21;99727.25;4984415;28;20070;-67
2021/12/21 08:58:28;;;;;;;55.10;19.00;;;;;;;-7.22;81.84;99724.41;4984920;28;20054;-68
2021/12/21 09:01:01;;;;;;;41.13;15.88;;;;;;;-7.24;81.36;99728.53;4985849;28;20084;-68
2021/12/21 09:03:31;;;;;;;24.52;9.70;;;;;;;-7.27;81.00;99718.25;4985709;28;20054;-69
2021/12/21 09:06:02;;;;;;;16.80;8.13;;;;;;;-7.22;81.61;99719.31;4984777;28;20062;-68
2021/12/21 09:08:33;;;;;;;14.27;8.23;;;;;;;-7.25;81.78;99706.50;4984209;28;20081;-68
2021/12/21 09:11:05;;;;;;;13.10;7.38;;;;;;;-7.12;82.97;99724.00;4985653;28;20059;-70
2021/12/21 09:13:36;;;;;;;16.55;7.90;;;;;;;-7.16;82.80;99712.00;4985260;28;20261;-69
2021/12/21 09:16:09;;;;;;;16.17;9.15;;;;;;;-7.45;82.88;99665.84;4985190;28;20322;-67
2021/12/21 09:18:39;;;;;;;19.10;9.38;;;;;;;-7.28;83.15;99693.69;4987138;28;20046;-67
2021/12/21 09:21:10;;;;;;;22.00;9.25;;;;;;;-7.54;83.65;99651.88;4986714;28;20050;-68
2021/12/21 09:23:42;;;;;;;16.77;8.85;;;;;;;-7.29;83.83;99689.38;4985468;28;20054;-69
2021/12/21 09:26:15;;;;;;;14.30;7.72;;;;;;;-7.23;84.07;99702.38;4986490;28;20093;-68
2021/12/21 09:28:46;;;;;;;12.18;8.05;;;;;;;-7.15;84.08;99713.72;4986447;28;20214;-68
2021/12/21 09:31:19;;;;;;;17.40;8.57;;;;;;;-7.18;83.88;99703.44;4986309;28;20133;-67
2021/12/21 09:33:50;;;;;;;14.52;7.10;;;;;;;-7.97;83.72;99578.88;4986634;28;20050;-68
2021/12/21 09:36:21;;;;;;;14.60;7.57;;;;;;;-7.25;83.67;99706.50;4985879;28;20085;-68
2021/12/21 09:38:51;;;;;;;13.10;7.03;;;;;;;-7.45;83.80;99678.53;4985395;28;20065;-67
2021/12/21 09:41:22;;;;;;;15.07;7.43;;;;;;;-7.30;83.74;99695.28;4986308;28;20090;-67
2021/12/21 09:43:53;;;;;;;11.93;6.75;;;;;;;-7.33;83.78;99687.53;4985159;28;20071;-65
2021/12/21 09:46:25;;;;;;;11.38;6.00;;;;;;;-7.30;84.62;99685.13;4985432;28;20054;-64
2021/12/21 09:48:57;;;;;;;13.50;7.22;;;;;;;-7.29;84.72;99684.31;4985671;28;20062;-67
2021/12/21 09:51:27;;;;;;;14.55;8.27;;;;;;;-7.51;84.60;99652.88;4985252;28;20053;-66
2021/12/21 09:54:01;;;;;;;13.82;8.25;;;;;;;-7.37;84.27;99677.19;4985783;28;20349;-68
2021/12/21 09:56:32;;;;;;;13.57;7.20;;;;;;;-7.38;84.32;99685.63;4981631;28;20296;-67
2021/12/21 09:59:03;;;;;;;18.15;8.63;;;;;;;-7.57;84.97;99639.91;4985798;28;20050;-68
2021/12/21 10:01:36;;;;;;;17.60;7.68;;;;;;;-7.35;84.99;99673.88;4984430;28;20835;-68
2021/12/21 10:04:06;;;;;;;18.98;8.40;;;;;;;-7.23;84.93;99674.44;4985592;28;20066;-68
2021/12/21 10:06:47;;;;;;;14.88;6.80;;;;;;;-7.21;84.76;99662.69;4986225;28;20070;-68
2021/12/21 10:09:20;;;;;;;8.27;5.43;;;;;;;-7.15;84.56;99668.03;4985658;28;20105;-68
2021/12/21 10:12:07;;;;;;;19.10;6.97;;;;;;;-7.17;83.87;99656.94;4985008;28;20100;-68
2021/12/21 10:14:38;;;;;;;12.50;7.90;;;;;;;-7.05;83.59;99665.09;4984953;28;20065;-68
2021/12/21 10:17:12;;;;;;;10.27;5.95;;;;;;;-7.10;83.04;99671.63;4984130;28;20077;-66
2021/12/21 10:19:46;;;;;;;14.00;6.40;;;;;;;-6.93;82.32;99669.00;4985412;28;20050;-67
2021/12/21 10:22:18;;;;;;;7.20;3.92;;;;;;;-6.88;80.94;99642.13;4985653;28;20053;-67
2021/12/21 10:24:51;;;;;;;10.15;5.25;;;;;;;-6.72;80.88;99654.66;4985813;28;20081;-68
2021/12/21 10:27:24;;;;;;;10.45;4.72;;;;;;;-6.60;80.31;99665.34;4985433;28;20042;-68
2021/12/21 10:29:57;;;;;;;6.35;3.70;;;;;;;-6.84;79.81;99613.47;4985659;28;20046;-69
2021/12/21 10:32:31;;;;;;;6.28;3.80;;;;;;;-6.58;79.41;99643.41;4985339;28;20066;-69
2021/12/21 10:35:06;;;;;;;6.18;3.70;;;;;;;-6.43;78.43;99667.72;4985203;28;20085;-68
2021/12/21 10:37:39;;;;;;;6.00;3.72;;;;;;;-6.45;78.47;99649.00;4985089;28;20082;-69
2021/12/21 10:40:22;;;;;;;9.25;4.40;;;;;;;-6.82;77.50;99592.41;4985046;28;20050;-69
2021/12/21 10:42:55;;;;;;;7.55;4.00;;;;;;;-6.89;76.93;99589.56;4985668;28;20098;-67
2021/12/21 10:45:30;;;;;;;5.50;3.35;;;;;;;-6.36;77.31;99659.56;4984813;28;20053;-67
2021/12/21 10:48:04;;;;;;;4.18;2.83;;;;;;;-6.39;76.60;99654.31;4984391;28;20046;-68
2021/12/21 10:50:37;;;;;;;4.05;3.35;;;;;;;-6.36;76.40;99659.56;4984851;28;20351;-66
2021/12/21 10:53:08;;;;;;;6.68;3.63;;;;;;;-6.29;75.91;99656.44;4984755;28;20081;-66
2021/12/21 10:55:40;;;;;;;4.93;3.35;;;;;;;-6.30;76.07;99659.81;4984818;28;20353;-69
2021/12/21 10:58:15;;;;;;;5.63;3.83;;;;;;;-6.29;76.33;99656.44;4984697;28;20089;-66
2021/12/21 11:00:49;;;;;;;8.48;3.72;;;;;;;-6.23;76.22;99661.78;4985030;28;20061;-65
2021/12/21 11:03:33;;;;;;;12.68;4.35;;;;;;;-6.22;76.23;99655.88;4984888;28;20062;-67
2021/12/21 11:06:14;;;;;;;15.23;6.80;;;;;;;-6.86;76.10;99544.84;4983867;28;20062;-67
2021/12/21 11:08:48;;;;;;;19.63;8.43;;;;;;;-6.36;76.20;99613.81;4985000;28;20054;-66
2021/12/21 11:11:26;;;;;;;28.92;10.57;;;;;;;-6.39;76.48;99593.31;4984514;28;20054;-66
2021/12/21 11:14:07;;;;;;;28.20;10.38;;;;;;;-6.33;76.18;99596.13;4984696;28;20050;-66
2021/12/21 11:16:40;;;;;;;59.58;20.98;;;;;;;-6.01;76.07;99644.88;4984456;28;20121;-67
2021/12/21 11:19:15;;;;;;;28.70;11.48;;;;;;;-6.00;75.66;99644.03;4984170;28;20073;-66
2021/12/21 11:21:47;;;;;;;26.23;10.48;;;;;;;-6.05;75.83;99635.38;4984559;28;20076;-67
2021/12/21 11:24:19;;;;;;;25.85;9.90;;;;;;;-6.07;75.81;99636.16;4984509;28;20129;-67
2021/12/21 11:26:50;;;;;;;30.63;11.70;;;;;;;-6.04;75.77;99632.00;4983954;28;20271;-67
2021/12/21 11:29:22;;;;;;;27.13;12.77;;;;;;;-6.17;76.07;99611.16;4984611;28;20100;-67
2021/12/21 11:31:55;;;;;;;24.75;9.88;;;;;;;-6.04;75.91;99632.00;4984371;28;20052;-69
2021/12/21 11:34:32;;;;;;;19.92;7.07;;;;;;;-6.02;76.47;99625.31;4983798;28;20054;-68
2021/12/21 11:39:50;;;;;;;6.18;3.70;;;;;;;-6.07;76.79;99628.53;4984365;28;20150;-68
2021/12/21 11:42:36;;;;;;;5.85;4.18;;;;;;;-6.02;77.17;99622.75;4984679;28;20093;-67
2021/12/21 11:45:13;;;;;;;7.85;4.00;;;;;;;-6.11;76.91;99603.78;4983254;28;20754;-67
2021/12/21 11:47:52;;;;;;;8.85;4.25;;;;;;;-6.03;77.30;99610.88;4984570;28;20069;-67
2021/12/21 11:50:25;;;;;;;9.27;4.38;;;;;;;-5.99;77.44;99610.16;4984355;28;20058;-68
2021/12/21 11:53:01;;;;;;;9.65;4.60;;;;;;;-6.11;77.23;99596.16;4984006;28;20042;-68
2021/12/21 11:55:34;;;;;;;3.80;2.78;;;;;;;-5.96;77.18;99610.31;4984332;28;20048;-67
2021/12/21 11:58:20;;;;;;;7.78;4.03;;;;;;;-5.93;77.16;99612.94;4984028;28;20085;-67
2021/12/21 12:00:53;;;;;;;8.90;4.85;;;;;;;-5.92;77.03;99607.00;4984202;28;20050;-67
2021/12/21 12:03:26;;;;;;;5.13;3.55;;;;;;;-6.25;76.90;99551.53;4984133;28;20082;-68
2021/12/21 12:06:01;;;;;;;7.50;3.92;;;;;;;-6.10;76.91;99572.47;4984419;28;20098;-68
2021/12/21 12:08:44;;;;;;;7.18;4.25;;;;;;;-5.93;76.71;99595.97;4983978;28;20065;-69
2021/12/21 12:11:24;;;;;;;8.45;4.20;;;;;;;-5.89;76.87;99612.22;4984294;28;20081;-67
2021/12/21 12:14:06;;;;;;;9.60;4.50;;;;;;;-5.90;76.57;99595.22;4984145;28;20261;-68
2021/12/21 12:16:45;;;;;;;8.35;4.72;;;;;;;-5.90;76.48;99590.13;4984006;28;20265;-69
2021/12/21 12:19:18;;;;;;;7.57;4.03;;;;;;;-5.88;76.36;99585.97;4986423;28;20081;-67
2021/12/21 12:22:01;;;;;;;7.35;4.07;;;;;;;-5.81;75.73;99589.63;4987926;28;20057;-66
2021/12/21 12:24:37;;;;;;;9.20;4.15;;;;;;;-5.80;75.45;99576.97;4987459;28;20046;-67
2021/12/21 12:27:12;;;;;;;8.52;4.95;;;;;;;-5.76;75.71;99583.91;4988140;28;20046;-65
2021/12/21 12:29:51;;;;;;;11.27;4.72;;;;;;;-5.72;75.61;99589.97;4988110;28;20319;-66
2021/12/21 12:32:34;;;;;;;7.40;4.85;;;;;;;-5.64;75.88;99584.38;4987576;28;20061;-65
2021/12/21 12:35:08;;;;;;;5.28;3.67;;;;;;;-5.65;75.78;99574.97;4987598;28;20153;-67
2021/12/21 12:37:52;;;;;;;7.78;3.83;;;;;;;-5.59;75.85;99576.00;4988007;28;20132;-66